createdAt,value
2023-08-19T00:00:01.018Z,66.46
2023-08-19T00:05:03.870Z,66.78
2023-08-19T00:10:06.301Z,66.73
2023-08-19T00:15:08.895Z,66.78
2023-08-19T00:20:11.837Z,66.87
2023-08-19T00:25:13.312Z,66.97
2023-08-19T00:30:14.823Z,66.84
2023-08-19T00:35:16.442Z,66.81
2023-08-19T00:40:17.986Z,66.56
2023-08-19T00:45:19.551Z,66.37
2023-08-19T00:50:21.515Z,66.60
2023-08-19T00:55:23.056Z,66.62
2023-08-19T01:00:24.766Z,66.72
2023-08-19T01:05:33.174Z,66.54
2023-08-19T01:10:49.101Z,66.53
2023-08-19T01:16:10.694Z,66.74
2023-08-19T01:21:12.783Z,66.67
2023-08-19T01:26:14.373Z,66.72
2023-08-19T01:31:16.672Z,67.02
2023-08-19T01:36:33.822Z,67.24
2023-08-19T01:41:37.334Z,67.38
2023-08-19T01:46:38.791Z,67.49
2023-08-19T01:51:40.343Z,67.45
2023-08-19T01:56:41.846Z,67.50
2023-08-19T02:01:43.339Z,67.70
2023-08-19T02:06:45.871Z,67.88
2023-08-19T02:11:47.340Z,67.68
2023-08-19T02:16:48.832Z,67.79
2023-08-19T02:21:50.319Z,67.88
2023-08-19T02:26:52.468Z,67.73
2023-08-19T02:31:54.054Z,67.69
2023-08-19T02:36:55.567Z,67.54
2023-08-19T02:41:57.021Z,67.32
2023-08-19T02:46:58.822Z,67.56
2023-08-19T02:52:00.657Z,67.65
2023-08-19T02:57:03.435Z,67.21
2023-08-19T03:02:05.011Z,67.62
2023-08-19T03:07:06.572Z,67.46
2023-08-19T03:12:08.695Z,67.38
2023-08-19T03:17:10.534Z,67.51
2023-08-19T03:22:12.116Z,67.42
2023-08-19T03:27:13.642Z,67.45
2023-08-19T03:32:15.553Z,67.53
2023-08-19T03:37:17.034Z,67.43
2023-08-19T03:42:19.304Z,67.68
2023-08-19T03:47:21.021Z,67.96
2023-08-19T03:52:24.923Z,67.76
2023-08-19T03:57:26.456Z,68.13
2023-08-19T04:02:28.678Z,68.13
2023-08-19T04:07:30.679Z,68.09
2023-08-19T04:12:32.498Z,68.16
2023-08-19T04:17:35.663Z,68.09
2023-08-19T04:22:38.345Z,68.32
2023-08-19T04:27:39.859Z,68.33
2023-08-19T04:32:43.146Z,68.43
2023-08-19T04:37:44.955Z,68.77
2023-08-19T04:42:47.531Z,68.53
2023-08-19T04:47:50.001Z,68.76
2023-08-19T04:52:52.341Z,69.04
2023-08-19T04:57:54.104Z,69.04
2023-08-19T05:02:56.002Z,69.33
2023-08-19T05:07:58.153Z,69.53
2023-08-19T05:12:59.954Z,69.46
2023-08-19T05:18:02.300Z,69.82
2023-08-19T05:23:04.046Z,69.80
2023-08-19T05:28:05.719Z,69.68
2023-08-19T05:33:07.255Z,69.83
2023-08-19T05:38:08.742Z,70.11
2023-08-19T05:43:10.210Z,70.41
2023-08-19T05:48:11.777Z,70.13
2023-08-19T05:53:13.201Z,69.94
2023-08-19T05:58:16.088Z,70.13
2023-08-19T06:03:17.624Z,69.62
2023-08-19T06:08:19.233Z,69.81
2023-08-19T06:13:20.606Z,69.67
2023-08-19T06:18:22.649Z,69.74
2023-08-19T06:23:24.569Z,70.09
2023-08-19T06:28:26.131Z,69.86
2023-08-19T06:33:28.352Z,70.61
2023-08-19T06:38:31.567Z,70.55
2023-08-19T06:43:33.933Z,70.42
2023-08-19T06:48:36.210Z,70.48
2023-08-19T06:53:38.023Z,70.90
2023-08-19T06:58:44.944Z,71.22
2023-08-19T07:03:46.820Z,70.92
2023-08-19T07:08:48.961Z,70.60
2023-08-19T07:13:50.744Z,70.84
2023-08-19T07:18:54.655Z,70.72
2023-08-19T07:24:01.824Z,70.81
2023-08-19T07:29:03.638Z,70.49
2023-08-19T07:34:05.078Z,70.12
2023-08-19T07:39:06.495Z,69.91
2023-08-19T07:44:08.012Z,69.93
2023-08-19T07:49:09.483Z,70.01
2023-08-19T07:54:10.961Z,69.71
2023-08-19T07:59:12.445Z,69.27
2023-08-19T08:04:13.923Z,68.28
2023-08-19T08:09:15.967Z,67.77
2023-08-19T08:14:17.651Z,66.36
2023-08-19T08:19:19.294Z,65.33
2023-08-19T08:24:21.987Z,64.60
2023-08-19T08:29:23.547Z,65.05
2023-08-19T08:34:25.070Z,65.23
2023-08-19T08:39:26.650Z,64.81
2023-08-19T08:44:28.511Z,64.89
2023-08-19T08:49:30.780Z,65.38
2023-08-19T08:54:34.281Z,64.83
2023-08-19T08:59:35.732Z,64.13
2023-08-19T09:04:39.254Z,62.89
2023-08-19T09:09:42.152Z,61.74
2023-08-19T09:14:45.218Z,61.08
2023-08-19T09:19:46.696Z,60.76
2023-08-19T09:24:49.100Z,60.45
2023-08-19T09:29:51.633Z,59.45
2023-08-19T09:35:08.722Z,59.17
2023-08-19T09:40:12.909Z,59.31
2023-08-19T09:45:19.788Z,58.67
2023-08-19T09:50:23.326Z,58.83
2023-08-19T09:55:26.568Z,58.45
2023-08-19T10:00:29.330Z,58.26
2023-08-19T10:05:34.019Z,58.55
2023-08-19T10:10:40.073Z,58.38
2023-08-19T10:15:44.814Z,58.99
2023-08-19T10:20:53.510Z,58.17
2023-08-19T10:25:55.235Z,57.61
2023-08-19T10:31:10.062Z,57.02
2023-08-19T10:36:19.378Z,56.77
2023-08-19T10:41:28.545Z,56.91
2023-08-19T10:46:44.246Z,55.57
2023-08-19T10:52:07.056Z,55.17
2023-08-19T10:57:18.809Z,54.50
2023-08-19T11:02:20.275Z,54.42
2023-08-19T11:07:22.303Z,53.60
2023-08-19T11:12:24.763Z,53.53
2023-08-19T11:17:33.495Z,53.01
2023-08-19T11:23:01.444Z,53.07
2023-08-19T11:28:03.373Z,53.60
2023-08-19T11:33:05.351Z,53.49
2023-08-19T11:38:16.250Z,52.87
2023-08-19T11:43:22.078Z,53.48
2023-08-19T11:48:23.576Z,53.01
2023-08-19T11:53:26.934Z,52.44
2023-08-19T11:58:41.714Z,51.01
2023-08-19T12:03:45.684Z,50.84
2023-08-19T12:08:50.510Z,50.29
2023-08-19T12:13:52.070Z,51.21
2023-08-19T12:18:53.518Z,50.94
2023-08-19T12:23:55.065Z,50.26
2023-08-19T12:28:56.950Z,49.19
2023-08-19T12:33:58.415Z,49.03
2023-08-19T12:38:59.902Z,48.41
2023-08-19T12:44:01.420Z,48.18
2023-08-19T12:49:04.833Z,48.10
2023-08-19T12:54:07.983Z,47.57
2023-08-19T12:59:09.504Z,47.34
2023-08-19T13:04:11.036Z,46.79
2023-08-19T13:09:12.748Z,46.13
2023-08-19T13:14:14.228Z,45.55
2023-08-19T13:19:15.702Z,42.55
2023-08-19T13:24:17.506Z,40.63
2023-08-19T13:29:18.981Z,39.04
2023-08-19T13:34:20.432Z,38.03
2023-08-19T13:39:21.875Z,38.28
2023-08-19T13:44:26.836Z,38.75
2023-08-19T13:49:28.298Z,38.73
2023-08-19T13:54:29.794Z,39.10
2023-08-19T13:59:31.267Z,39.50
2023-08-19T14:04:32.741Z,39.98
2023-08-19T14:09:34.255Z,41.21
2023-08-19T14:14:38.411Z,41.57
2023-08-19T14:19:40.914Z,41.60
2023-08-19T14:24:42.381Z,41.36
2023-08-19T14:29:43.830Z,41.96
2023-08-19T14:34:45.438Z,41.52
2023-08-19T14:39:46.940Z,42.52
2023-08-19T14:44:48.406Z,42.10
2023-08-19T14:49:51.549Z,41.51
2023-08-19T14:54:53.306Z,41.68
2023-08-19T14:59:55.088Z,41.63
2023-08-19T15:04:56.651Z,41.72
2023-08-19T15:09:58.173Z,41.28
2023-08-19T15:14:59.633Z,40.48
2023-08-19T15:20:01.143Z,41.10
2023-08-19T15:25:03.325Z,41.34
2023-08-19T15:30:06.650Z,42.15
2023-08-19T15:35:08.730Z,44.04
2023-08-19T15:40:11.091Z,44.69
2023-08-19T15:45:13.021Z,44.74
2023-08-19T15:50:15.823Z,45.09
2023-08-19T15:55:17.457Z,45.77
2023-08-19T16:00:19.140Z,45.21
2023-08-19T16:05:20.774Z,44.70
2023-08-19T16:10:22.617Z,44.52
2023-08-19T16:15:24.145Z,43.78
2023-08-19T16:20:25.640Z,43.48
2023-08-19T16:25:27.345Z,43.27
2023-08-19T16:30:28.894Z,42.73
2023-08-19T16:35:30.482Z,43.03
2023-08-19T16:40:34.542Z,42.79
2023-08-19T16:45:36.034Z,43.17
2023-08-19T16:50:37.489Z,44.20
2023-08-19T16:55:38.949Z,44.81
2023-08-19T17:00:40.480Z,45.28
2023-08-19T17:05:44.331Z,45.85
2023-08-19T17:10:45.811Z,46.28
2023-08-19T17:15:53.379Z,46.29
2023-08-19T17:20:58.153Z,47.27
2023-08-19T17:25:59.750Z,47.46
2023-08-19T17:31:06.183Z,47.27
2023-08-19T17:36:07.816Z,47.71
2023-08-19T17:41:17.910Z,48.09
2023-08-19T17:46:19.460Z,48.54
2023-08-19T17:51:20.965Z,48.63
2023-08-19T17:56:22.500Z,48.67
2023-08-19T18:01:24.029Z,49.86
2023-08-19T18:06:25.683Z,50.22
2023-08-19T18:11:27.170Z,49.61
2023-08-19T18:16:28.658Z,50.08
2023-08-19T18:21:30.231Z,49.98
2023-08-19T18:26:31.679Z,50.42
2023-08-19T18:31:33.162Z,50.80
2023-08-19T18:36:34.647Z,50.44
2023-08-19T18:41:36.166Z,51.25
2023-08-19T18:46:37.685Z,51.47
2023-08-19T18:51:39.135Z,51.86
2023-08-19T18:56:40.583Z,51.96
2023-08-19T19:01:42.191Z,52.32
2023-08-19T19:06:43.804Z,52.75
2023-08-19T19:11:45.268Z,53.09
2023-08-19T19:16:46.850Z,53.07
2023-08-19T19:21:48.379Z,53.44
2023-08-19T19:26:50.982Z,53.85
2023-08-19T19:31:52.445Z,53.94
2023-08-19T19:36:54.047Z,54.30
2023-08-19T19:41:55.601Z,54.27
2023-08-19T19:46:57.075Z,54.14
2023-08-19T19:51:58.564Z,54.47
2023-08-19T19:57:00.078Z,54.64
2023-08-19T20:02:01.554Z,55.05
2023-08-19T20:07:03.201Z,54.93
2023-08-19T20:12:04.886Z,55.43
2023-08-19T20:17:06.429Z,55.34
2023-08-19T20:22:08.016Z,55.10
2023-08-19T20:27:10.019Z,55.69
2023-08-19T20:32:12.069Z,55.71
2023-08-19T20:37:13.605Z,56.21
2023-08-19T20:42:15.086Z,56.48
2023-08-19T20:47:16.633Z,56.61
2023-08-19T20:52:18.234Z,56.86
2023-08-19T20:57:19.755Z,56.97
2023-08-19T21:02:23.072Z,57.58
2023-08-19T21:07:24.589Z,56.85
2023-08-19T21:12:26.446Z,56.93
2023-08-19T21:17:28.133Z,57.55
2023-08-19T21:22:29.744Z,57.32
2023-08-19T21:27:31.231Z,57.26
2023-08-19T21:32:32.704Z,57.11
2023-08-19T21:37:34.324Z,57.36
2023-08-19T21:42:36.921Z,57.27
2023-08-19T21:47:38.620Z,57.59
2023-08-19T21:52:40.211Z,57.59
2023-08-19T21:57:41.686Z,57.48
2023-08-19T22:02:43.424Z,57.95
2023-08-19T22:07:45.046Z,57.78
2023-08-19T22:12:46.544Z,57.90
2023-08-19T22:17:48.099Z,58.01
2023-08-19T22:22:49.594Z,58.46
2023-08-19T22:27:51.506Z,58.18
2023-08-19T22:32:53.035Z,58.75
2023-08-19T22:37:54.492Z,58.47
2023-08-19T22:42:55.940Z,58.67
2023-08-19T22:47:57.472Z,59.00
2023-08-19T22:52:58.971Z,58.92
2023-08-19T22:58:00.427Z,59.42
2023-08-19T23:03:01.903Z,58.66
2023-08-19T23:08:03.641Z,58.59
2023-08-19T23:13:05.098Z,57.80
2023-08-19T23:18:06.490Z,57.85
2023-08-19T23:23:07.962Z,57.79
2023-08-19T23:28:10.068Z,57.61
2023-08-19T23:33:11.514Z,57.78
2023-08-19T23:38:13.114Z,57.68
2023-08-19T23:43:14.687Z,57.62
2023-08-19T23:48:16.359Z,57.64
2023-08-19T23:53:21.741Z,57.50
2023-08-19T23:58:25.115Z,57.75
